Flight Track Log - Related Links

Times and Time Zones

All times are in EDT time to prevent confusion due to time zone crossing. See the JBU917 flight status page for this flight to view local times or setup timezone preferences in your user account.

Time Position Orientation Groundspeed Altitude Reporting Facility
EDT Latitude Longitude Course Direction KTS MPH feet Rate Location/Type
Fri 04:44:25 PM 40.6667 -73.7333 323° Northwest 166 191 1,800  Level New York TRACON
Fri 04:45:25 PM 40.6667 -73.6500 90° East 246 283 3,400 2,150 Climbing New York TRACON
Fri 04:46:00 PM 40.8502 -74.1837 304° West  Level FlightAware Approximate
Fri 04:46:25 PM 40.7000 -73.5500 66° East 306 352 6,100  Level New York TRACON
Fri 04:47:00 PM 40.9069 -74.2902 306° West  Level FlightAware Approximate
Fri 04:47:25 PM 40.7667 -73.4667 43° Northeast 315 362 9,100  Level New York TRACON
Fri 04:48:00 PM 40.9645 -74.3960 306° West  Level FlightAware Approximate
Fri 04:48:25 PM 40.8500 -73.4500 North 333 383 11,200  Level New York TRACON
Fri 04:49:00 PM 41.0275 -74.4942 323° Northwest  Level FlightAware Approximate
Fri 04:49:25 PM 40.9167 -73.5333 317° Northwest 314 361 13,700  Level New York TRACON
Fri 04:50:25 PM 40.9667 -73.6167 308° West 329 379 16,300 1,650 Climbing New York TRACON
Fri 04:51:25 PM 41.0333 -73.7167 311° West 351 404 17,000 350 Climbing New York TRACON
Fri 04:52:25 PM 41.0500 -73.8333 281° West 340 391 17,000  Level New York TRACON
Fri 04:53:25 PM 41.0667 -73.9500 281° West 338 389 17,000 30 Level New York TRACON
Fri 04:55:42 PM 41.1050 -74.2158 281° West 347 399 17,100 305 Climbing New York Center
Fri 04:56:42 PM 41.1428 -74.3472 291° West 347 399 18,000 1,729 Climbing New York Center
Fri 04:57:40 PM 41.1808 -74.4622 294° West 348 400 20,500 2,150 Climbing New York Center
Fri 04:58:42 PM 41.2144 -74.5856 290° West 354 407 22,300 1,525 Climbing New York Center
Fri 04:59:42 PM 41.2539 -74.7175 292° West 360 414 23,600 1,424 Climbing New York Center
Fri 05:00:40 PM 41.2931 -74.8494 292° West 374 430 25,100 1,462 Climbing New York Center
Fri 05:01:41 PM 41.3322 -74.9844 291° West 385 443 26,500 1,240 Climbing New York Center
Fri 05:02:41 PM 41.3731 -75.1253 291° West 396 456 27,600 1,150 Climbing New York Center
Fri 05:03:41 PM 41.4136 -75.2633 291° West 407 468 28,800 1,190 Climbing New York Center
Fri 05:04:42 PM 41.4539 -75.4072 291° West 407 468 30,000 1,250 Climbing New York Center
Fri 05:05:41 PM 41.4961 -75.5486 292° West 412 474 31,300 1,311 Climbing New York Center
Fri 05:06:41 PM 41.5342 -75.6900 290° West 412 474 32,600 1,190 Climbing New York Center
Fri 05:07:42 PM 41.5744 -75.8231 292° West 407 468 33,700 1,190 Climbing New York Center
Fri 05:08:42 PM 41.6119 -75.9619 290° West 400 460 35,000 1,169 Climbing New York Center
Fri 05:09:40 PM 41.6481 -76.0897 291° West 389 448 36,000 504 Climbing New York Center
Fri 05:10:41 PM 41.6878 -76.2233 292° West 384 442 36,000  Level New York Center
Fri 05:11:42 PM 41.7233 -76.3569 290° West 384 442 36,000  Level New York Center
Fri 05:13:21 PM 41.7883 -76.5864 291° West 385 443 36,000  Level Cleveland Center
Fri 05:14:21 PM 41.8242 -76.7236 289° West 385 443 36,000  Level Cleveland Center
Fri 05:15:21 PM 41.8619 -76.8553 291° West 385 443 36,000  Level Cleveland Center
Fri 05:16:21 PM 41.8953 -76.9844 289° West 379 436 36,000  Level Cleveland Center
Fri 05:17:21 PM 41.9328 -77.1164 291° West 379 436 36,000  Level Cleveland Center
Fri 05:18:21 PM 41.9678 -77.2483 290° West 379 436 36,000  Level Cleveland Center
Fri 05:19:21 PM 42.0031 -77.3808 290° West 379 436 36,000  Level Cleveland Center
Fri 05:20:21 PM 42.0400 -77.5133 291° West 379 436 36,000  Level Cleveland Center
Fri 05:21:21 PM 42.0725 -77.6458 288° West 379 436 36,000  Level Cleveland Center
Fri 05:22:21 PM 42.1094 -77.7814 290° West 379 436 36,000  Level Cleveland Center
Fri 05:23:21 PM 42.1458 -77.9169 290° West 379 436 36,000  Level Cleveland Center
Fri 05:24:21 PM 42.1803 -78.0528 289° West 379 436 36,000  Level Cleveland Center
Fri 05:25:21 PM 42.2164 -78.1889 290° West 379 436 36,000  Level Cleveland Center
Fri 05:26:21 PM 42.2525 -78.3250 290° West 379 436 36,000  Level Cleveland Center
Fri 05:27:21 PM 42.2864 -78.4614 289° West 379 436 36,000  Level Cleveland Center
Fri 05:28:21 PM 42.3222 -78.6006 289° West 379 436 36,000  Level Cleveland Center
Fri 05:29:21 PM 42.3581 -78.7428 289° West 384 442 36,000  Level Cleveland Center
Fri 05:30:21 PM 42.3936 -78.8850 289° West 395 455 36,000  Level Cleveland Center
Fri 05:31:22 PM 42.4289 -79.0275 289° West 400 460 36,000  Level Cleveland Center
Fri 05:32:21 PM 42.4683 -79.1703 291° West 400 460 36,000  Level Cleveland Center
Fri 05:33:21 PM 42.4950 -79.3133 284° West 400 460 36,000  Level Cleveland Center
Fri 05:34:21 PM 42.5006 -79.4594 273° West 395 455 36,000  Level Cleveland Center
Fri 05:35:21 PM 42.5061 -79.6086 273° West 395 455 36,000  Level Cleveland Center
Fri 05:36:21 PM 42.5156 -79.7578 275° West 395 455 36,000  Level Cleveland Center
Fri 05:37:21 PM 42.5228 -79.8875 274° West 395 455 36,000  Level Cleveland Center
Fri 05:38:21 PM 42.5278 -80.0592 272° West 403 464 36,000  Level Cleveland Center
Fri 05:39:21 PM 42.5347 -80.2111 274° West 408 470 36,000  Level Cleveland Center
Fri 05:40:21 PM 42.5392 -80.3578 272° West 397 457 36,000  Level Cleveland Center
Fri 05:41:21 PM 42.5456 -80.5100 273° West 403 464 36,000  Level Cleveland Center
Fri 05:42:21 PM 42.5519 -80.6650 273° West 403 464 36,000  Level Cleveland Center
Fri 05:43:21 PM 42.5600 -80.8172 274° West 403 464 36,000  Level Cleveland Center
Fri 05:44:21 PM 42.5639 -80.9639 272° West 403 464 36,000  Level Cleveland Center
Fri 05:45:21 PM 42.5694 -81.1161 273° West 403 464 36,000  Level Cleveland Center
Fri 05:46:21 PM 42.5747 -81.2711 273° West 403 464 36,000  Level Cleveland Center
Fri 05:47:21 PM 42.5800 -81.4206 273° West 402 463 36,000  Level Cleveland Center
Fri 05:48:21 PM 42.6039 -81.5761 282° West 409 471 36,000  Level Cleveland Center
Fri 05:49:21 PM 42.6278 -81.7092 284° West 414 476 36,000  Level Cleveland Center
Fri 05:50:21 PM 42.6533 -81.8592 283° West 408 470 36,000  Level Cleveland Center
Fri 05:51:21 PM 42.6806 -82.0122 284° West 413 475 36,000  Level Cleveland Center
Fri 05:52:21 PM 42.7058 -82.1569 283° West 408 470 36,000  Level Cleveland Center
Fri 05:53:21 PM 42.7308 -82.3044 283° West 408 470 36,000  Level Cleveland Center
Fri 05:54:21 PM 42.7556 -82.4522 283° West 403 464 36,000  Level Cleveland Center
Fri 05:55:21 PM 42.7844 -82.6003 285° West 403 464 36,000  Level Cleveland Center
Fri 05:56:21 PM 42.8550 -82.7242 308° West 403 464 36,000 -150 Level Cleveland Center
Fri 05:57:21 PM 42.9278 -82.8517 308° West 409 471 35,700 -650 Descending Cleveland Center
Fri 05:58:21 PM 43.0003 -82.9733 309° West 414 476 34,700 -850 Descending Cleveland Center
Fri 05:59:21 PM 43.0725 -83.0986 308° West 421 484 34,000 -350 Descending Cleveland Center
Fri 06:00:21 PM 43.1217 -83.2314 297° West 398 458 34,000  Level Cleveland Center
Fri 06:01:21 PM 43.0892 -83.3692 252° West 374 430 34,000 -250 Level Cleveland Center
Fri 06:02:21 PM 43.0464 -83.5067 247° West 361 415 33,500 -750 Descending Cleveland Center
Fri 06:03:21 PM 43.0014 -83.6322 244° Southwest 374 430 32,500 -750 Descending Cleveland Center
Fri 06:04:21 PM 42.9644 -83.7667 249° West 380 437 32,000 -250 Descending Cleveland Center
Fri 06:05:21 PM 42.9478 -83.9106 261° West 385 443 32,000  Level Cleveland Center
Fri 06:06:21 PM 42.9331 -84.0572 262° West 390 449 32,000  Level Cleveland Center
Fri 06:07:21 PM 42.9200 -84.2067 263° West 400 460 32,000  Level Cleveland Center
Fri 06:08:29 PM 42.9036 -84.3861 263° West 391 450 32,000  Level Chicago Center
Fri 06:09:31 PM 42.8889 -84.5342 262° West 395 455 32,000  Level Chicago Center
Fri 06:10:33 PM 42.8742 -84.6811 262° West 393 452 32,000  Level Chicago Center
Fri 06:11:35 PM 42.8583 -84.8306 262° West 396 456 32,000  Level Chicago Center
Fri 06:12:37 PM 42.8422 -84.9794 262° West 397 457 32,000  Level Chicago Center
Fri 06:13:40 PM 42.8267 -85.1267 262° West 395 455 32,000 -240 Level Chicago Center
Fri 06:14:42 PM 42.8081 -85.2997 262° West 387 445 31,500 -1,258 Descending Chicago Center
Fri 06:15:44 PM 42.7917 -85.4483 262° West 393 452 29,400 -2,081 Descending Chicago Center
Fri 06:16:46 PM 42.7689 -85.5969 258° West 399 459 27,200 -1,790 Descending Chicago Center
Fri 06:17:48 PM 42.7431 -85.7436 257° West 397 457 25,700 -1,452 Descending Chicago Center
Fri 06:18:50 PM 42.7172 -85.8861 256° West 389 448 24,200 -1,452 Descending Chicago Center
Fri 06:19:52 PM 42.6925 -86.0219 256° West 373 429 22,700 -1,403 Descending Chicago Center
Fri 06:20:54 PM 42.6678 -86.1556 256° West 365 420 21,300 -1,355 Descending Chicago Center
Fri 06:21:56 PM 42.6386 -86.3111 256° West 355 409 19,900 -1,403 Descending Chicago Center
Fri 06:22:58 PM 42.6136 -86.4400 255° West 353 406 18,400 -1,500 Descending Chicago Center
Fri 06:24:00 PM 42.5894 -86.5678 256° West 350 403 16,800 -1,536 Descending Chicago Center
Fri 06:25:03 PM 42.5661 -86.6928 256° West 343 395 15,200 -1,488 Descending Chicago Center
Fri 06:26:05 PM 42.5383 -86.8114 252° West 333 383 13,700 -1,403 Descending Chicago Center
Fri 06:27:07 PM 42.5061 -86.9256 249° West 326 375 12,300 -1,536 Descending Chicago Center
Fri 06:28:10 PM 42.4703 -87.0581 250° West 314 361 10,500 -1,113 Descending Chicago Center
Fri 06:29:11 PM 42.4400 -87.1675 249° West 312 359 10,000 -390 Descending Chicago Center
Fri 06:30:13 PM 42.4139 -87.2642 250° West 280 322 9,700 -774 Descending Chicago Center
Fri 06:31:15 PM 42.3883 -87.3519 249° West 256 295 8,400 -1,403 Descending Chicago Center
Fri 06:32:17 PM 42.3136 -87.3831 197° South 272 313 6,800 -1,161 Descending Chicago Center
Fri 06:33:19 PM 42.2461 -87.4017 192° South 264 304 6,000 -581 Descending Chicago Center
Fri 06:34:21 PM 42.1608 -87.4267 192° South 262 302 5,600 -733 Descending Chicago Center
Fri 06:34:49 PM 42.1167 -87.4333 186° South 261 300 4,900 -1,091 Descending Chicago TRACON
Fri 06:35:49 PM 42.0500 -87.4167 169° South 266 306 4,000 -450 Descending Chicago TRACON
Fri 06:36:49 PM 42.0000 -87.4667 217° Southwest 238 274 4,000  Level Chicago TRACON
Fri 06:37:43 PM 42.0000 -87.5333 270° West 217 250 4,000  Level Chicago TRACON
Fri 06:38:49 PM 42.0000 -87.6167 270° West 193 222 4,000 -136 Level Chicago TRACON
Fri 06:39:55 PM 42.0000 -87.7000 270° West 187 215 3,700 -571 Descending Chicago TRACON
Fri 06:40:55 PM 42.0000 -87.7667 270° West 176 203 2,800 -947 Descending Chicago TRACON
Fri 06:41:49 PM 42.0000 -87.8167 270° West 150 173 1,900 -545 Descending Chicago TRACON
Fri 06:43:40 PM 42.0019 -87.9044 272° West 164 189 1,300 -324 Descending Chicago Center
Fri 06:45:00 PM 41.9817 -87.9067 217° Southwest  Level Estimated

Login

Don't have an account? Register now (free) for customized features, flight alerts, and more!